createdAt,value
2022-11-19T00:00:19.825Z,93.03
2022-11-19T00:03:22.855Z,92.69
2022-11-19T00:06:27.654Z,92.40
2022-11-19T00:09:30.391Z,92.69
2022-11-19T00:12:51.681Z,92.47
2022-11-19T00:15:54.412Z,92.38
2022-11-19T00:18:57.188Z,92.90
2022-11-19T00:22:00.025Z,92.46
2022-11-19T00:25:03.806Z,92.30
2022-11-19T00:28:06.949Z,91.66
2022-11-19T00:31:12.114Z,91.82
2022-11-19T00:34:14.888Z,91.34
2022-11-19T00:37:17.589Z,90.56
2022-11-19T00:40:20.482Z,90.58
2022-11-19T00:43:41.687Z,90.70
2022-11-19T00:46:44.642Z,90.29
2022-11-19T00:49:47.428Z,90.26
2022-11-19T00:52:50.163Z,90.23
2022-11-19T00:55:53.009Z,90.55
2022-11-19T00:58:56.550Z,91.02
2022-11-19T01:01:59.262Z,91.16
2022-11-19T01:05:02.129Z,90.89
2022-11-19T01:08:05.105Z,91.64
2022-11-19T01:11:13.638Z,89.30
2022-11-19T01:14:16.564Z,88.49
2022-11-19T01:17:19.317Z,88.06
2022-11-19T01:20:22.132Z,87.80
2022-11-19T01:23:25.111Z,88.81
2022-11-19T01:26:29.082Z,88.92
2022-11-19T01:29:31.813Z,89.67
2022-11-19T01:32:34.522Z,88.43
2022-11-19T01:35:37.564Z,87.01
2022-11-19T01:38:40.356Z,86.49
2022-11-19T01:41:43.121Z,86.51
2022-11-19T01:45:04.487Z,86.78
2022-11-19T01:48:16.204Z,86.30
2022-11-19T01:51:24.980Z,86.88
2022-11-19T01:54:34.650Z,87.33
2022-11-19T01:57:40.107Z,86.79
2022-11-19T02:00:43.085Z,86.95
2022-11-19T02:03:47.251Z,87.54
2022-11-19T02:06:50.537Z,87.05
2022-11-19T02:09:53.323Z,87.00
2022-11-19T02:13:30.042Z,86.45
2022-11-19T02:16:58.843Z,86.46
2022-11-19T02:20:34.846Z,86.10
2022-11-19T02:23:46.750Z,86.51
2022-11-19T02:27:14.437Z,87.32
2022-11-19T02:30:19.581Z,87.92
2022-11-19T02:33:44.730Z,88.40
2022-11-19T02:36:59.098Z,89.03
2022-11-19T02:40:30.125Z,88.91
2022-11-19T02:43:40.947Z,89.45
2022-11-19T02:46:45.468Z,89.57
2022-11-19T02:49:52.280Z,90.60
2022-11-19T02:52:55.256Z,91.30
2022-11-19T02:56:13.009Z,91.23
2022-11-19T02:59:37.406Z,91.18
2022-11-19T03:03:04.627Z,92.92
2022-11-19T03:06:20.453Z,93.81
2022-11-19T03:09:23.988Z,93.56
2022-11-19T03:12:49.632Z,93.46
2022-11-19T03:16:13.479Z,93.47
2022-11-19T03:19:20.033Z,93.69
2022-11-19T03:22:48.683Z,94.45
2022-11-19T03:25:59.853Z,93.52
2022-11-19T03:29:06.201Z,93.45
2022-11-19T03:32:18.785Z,93.85
2022-11-19T03:35:29.417Z,93.92
2022-11-19T03:38:37.061Z,93.51
2022-11-19T03:41:42.696Z,92.97
2022-11-19T03:44:52.437Z,93.40
2022-11-19T03:47:57.097Z,92.69
2022-11-19T03:51:18.161Z,93.44
2022-11-19T03:54:20.952Z,93.47
2022-11-19T03:57:25.878Z,93.34
2022-11-19T04:00:28.603Z,93.28
2022-11-19T04:03:31.626Z,92.42
2022-11-19T04:06:34.327Z,93.46
2022-11-19T04:09:38.487Z,94.32
2022-11-19T04:12:41.231Z,94.86
2022-11-19T04:15:44.234Z,94.21
2022-11-19T04:18:47.048Z,93.97
2022-11-19T04:21:50.752Z,93.74
2022-11-19T04:24:53.473Z,93.40
2022-11-19T04:27:56.320Z,93.57
2022-11-19T04:30:59.112Z,93.74
2022-11-19T04:34:02.034Z,93.03
2022-11-19T04:37:04.866Z,93.59
2022-11-19T04:40:08.363Z,93.06
2022-11-19T04:43:11.074Z,93.68
2022-11-19T04:46:13.859Z,93.56
2022-11-19T04:49:16.862Z,94.33
2022-11-19T04:52:19.886Z,94.36
2022-11-19T04:55:22.631Z,94.68
2022-11-19T04:58:25.497Z,94.45
2022-11-19T05:01:28.780Z,94.01
2022-11-19T05:04:31.510Z,94.08
2022-11-19T05:07:34.269Z,94.10
2022-11-19T05:10:37.275Z,94.26
2022-11-19T05:13:40.059Z,95.15
2022-11-19T05:16:42.751Z,95.18
2022-11-19T05:19:45.491Z,95.31
2022-11-19T05:22:48.346Z,95.09
2022-11-19T05:25:51.364Z,94.71
2022-11-19T05:28:54.052Z,94.88
2022-11-19T05:31:56.828Z,94.90
2022-11-19T05:34:59.499Z,95.00
2022-11-19T05:38:02.265Z,94.62
2022-11-19T05:41:05.035Z,94.41
2022-11-19T05:44:07.914Z,94.21
2022-11-19T05:47:10.794Z,94.18
2022-11-19T05:50:14.023Z,93.81
2022-11-19T05:53:16.727Z,92.21
2022-11-19T05:56:19.694Z,90.96
2022-11-19T05:59:22.773Z,90.71
2022-11-19T06:02:25.710Z,88.66
2022-11-19T06:05:28.772Z,89.28
2022-11-19T06:08:31.678Z,88.81
2022-11-19T06:11:54.749Z,89.01
2022-11-19T06:14:57.587Z,85.40
2022-11-19T06:18:00.376Z,86.37
2022-11-19T06:21:06.027Z,87.39
2022-11-19T06:24:15.343Z,87.18
2022-11-19T06:27:18.170Z,86.33
2022-11-19T06:30:21.101Z,87.45
2022-11-19T06:33:23.830Z,86.71
2022-11-19T06:36:27.711Z,86.97
2022-11-19T06:39:30.600Z,86.36
2022-11-19T06:42:39.199Z,85.34
2022-11-19T06:45:41.932Z,84.35
2022-11-19T06:48:44.653Z,84.16
2022-11-19T06:51:47.573Z,84.53
2022-11-19T06:54:50.334Z,83.91
2022-11-19T06:57:53.102Z,84.10
2022-11-19T07:00:56.682Z,84.67
2022-11-19T07:04:00.000Z,83.89
2022-11-19T07:07:02.779Z,84.04
2022-11-19T07:10:06.022Z,84.05
2022-11-19T07:13:08.865Z,84.78
2022-11-19T07:16:11.631Z,83.11
2022-11-19T07:19:14.432Z,83.23
2022-11-19T07:22:17.251Z,81.47
2022-11-19T07:25:20.784Z,81.99
2022-11-19T07:28:23.551Z,80.96
2022-11-19T07:31:26.272Z,77.63
2022-11-19T07:34:28.999Z,77.05
2022-11-19T07:37:31.822Z,77.82
2022-11-19T07:40:34.554Z,82.66
2022-11-19T07:43:37.293Z,83.82
2022-11-19T07:46:41.346Z,84.33
2022-11-19T07:49:44.060Z,84.75
2022-11-19T07:52:46.835Z,84.58
2022-11-19T07:55:49.531Z,84.97
2022-11-19T07:58:52.610Z,85.42
2022-11-19T08:01:56.029Z,83.21
2022-11-19T08:04:59.465Z,83.90
2022-11-19T08:08:02.202Z,83.36
2022-11-19T08:11:07.552Z,83.37
2022-11-19T08:14:13.250Z,84.05
2022-11-19T08:17:34.665Z,83.09
2022-11-19T08:20:37.350Z,83.59
2022-11-19T08:23:40.173Z,83.73
2022-11-19T08:26:43.391Z,84.93
2022-11-19T08:29:46.234Z,85.98
2022-11-19T08:32:49.245Z,86.48
2022-11-19T08:35:56.251Z,86.47
2022-11-19T08:39:00.669Z,85.96
2022-11-19T08:42:22.011Z,85.80
2022-11-19T08:45:26.966Z,86.79
2022-11-19T08:48:29.733Z,85.95
2022-11-19T08:51:32.639Z,84.11
2022-11-19T08:54:35.583Z,84.45
2022-11-19T08:57:38.293Z,83.95
2022-11-19T09:00:41.061Z,83.63
2022-11-19T09:03:44.337Z,83.08
2022-11-19T09:06:47.105Z,82.44
2022-11-19T09:09:49.856Z,83.54
2022-11-19T09:12:53.357Z,83.85
2022-11-19T09:15:56.135Z,84.80
2022-11-19T09:18:59.085Z,86.32
2022-11-19T09:22:01.746Z,85.81
2022-11-19T09:25:05.461Z,84.95
2022-11-19T09:28:08.277Z,84.79
2022-11-19T09:31:17.036Z,85.23
2022-11-19T09:34:19.944Z,85.88
2022-11-19T09:37:22.856Z,84.50
2022-11-19T09:40:25.574Z,83.17
2022-11-19T09:43:47.602Z,84.12
2022-11-19T09:47:22.200Z,84.60
2022-11-19T09:50:29.403Z,84.96
2022-11-19T09:53:41.121Z,83.12
2022-11-19T09:56:46.876Z,82.86
2022-11-19T09:59:52.175Z,82.83
2022-11-19T10:02:57.071Z,83.68
2022-11-19T10:06:15.204Z,84.62
2022-11-19T10:09:29.853Z,83.77
2022-11-19T10:13:12.150Z,83.76
2022-11-19T10:16:40.435Z,82.81
2022-11-19T10:20:21.032Z,81.64
2022-11-19T10:23:48.275Z,81.39
2022-11-19T10:27:04.372Z,80.75
2022-11-19T10:30:17.578Z,79.81
2022-11-19T10:33:35.242Z,78.44
2022-11-19T10:36:49.451Z,77.02
2022-11-19T10:40:02.496Z,77.79
2022-11-19T10:43:30.567Z,76.08
2022-11-19T10:46:33.944Z,74.52
2022-11-19T10:49:40.222Z,74.37
2022-11-19T10:52:47.468Z,74.58
2022-11-19T10:55:55.170Z,76.09
2022-11-19T10:59:02.391Z,74.12
2022-11-19T11:02:26.511Z,74.07
2022-11-19T11:05:31.692Z,74.96
2022-11-19T11:08:48.774Z,74.58
2022-11-19T11:12:10.046Z,73.38
2022-11-19T11:15:16.445Z,69.25
2022-11-19T11:18:26.381Z,67.27
2022-11-19T11:21:36.850Z,67.40
2022-11-19T11:24:39.938Z,69.30
2022-11-19T11:27:42.631Z,72.56
2022-11-19T11:31:11.467Z,75.52
2022-11-19T11:34:30.995Z,75.88
2022-11-19T11:37:33.730Z,75.95
2022-11-19T11:40:37.140Z,74.78
2022-11-19T11:44:01.475Z,76.12
2022-11-19T11:47:12.980Z,75.28
2022-11-19T11:50:21.907Z,76.37
2022-11-19T11:53:31.983Z,76.81
2022-11-19T11:56:37.423Z,77.79
2022-11-19T11:59:40.154Z,77.50
2022-11-19T12:03:00.504Z,76.38
2022-11-19T12:06:13.149Z,74.74
2022-11-19T12:09:42.655Z,75.41
2022-11-19T12:13:02.363Z,75.93
2022-11-19T12:16:20.374Z,76.84
2022-11-19T12:19:45.395Z,77.18
2022-11-19T12:23:06.306Z,77.68
2022-11-19T12:26:18.405Z,78.63
2022-11-19T12:29:33.688Z,77.76
2022-11-19T12:32:54.495Z,77.99
2022-11-19T12:36:15.811Z,78.15
2022-11-19T12:39:43.065Z,79.33
2022-11-19T12:43:17.955Z,78.32
2022-11-19T12:46:48.551Z,79.56
2022-11-19T12:50:03.896Z,80.18
2022-11-19T12:53:12.857Z,79.33
2022-11-19T12:56:44.606Z,79.91
2022-11-19T13:00:15.173Z,80.10
2022-11-19T13:03:31.161Z,80.82
2022-11-19T13:06:45.405Z,81.23
2022-11-19T13:09:53.127Z,81.57
2022-11-19T13:12:58.263Z,81.67
2022-11-19T13:16:07.661Z,81.94
2022-11-19T13:19:32.749Z,82.00
2022-11-19T13:22:44.250Z,82.14
2022-11-19T13:25:56.972Z,82.30
2022-11-19T13:29:37.457Z,82.92
2022-11-19T13:32:48.608Z,82.26
2022-11-19T13:36:00.092Z,82.13
2022-11-19T13:39:29.190Z,81.47
2022-11-19T13:43:04.077Z,80.39
2022-11-19T13:46:13.344Z,80.84
2022-11-19T13:49:23.302Z,80.66
2022-11-19T13:52:26.920Z,80.76
2022-11-19T13:55:29.653Z,81.28
2022-11-19T13:58:34.039Z,81.22
2022-11-19T14:01:59.923Z,81.28
2022-11-19T14:05:05.688Z,80.80
2022-11-19T14:08:27.005Z,81.62
2022-11-19T14:11:50.170Z,81.84
2022-11-19T14:15:34.181Z,82.72
2022-11-19T14:19:05.965Z,82.51
2022-11-19T14:22:54.183Z,83.09
2022-11-19T14:26:15.680Z,83.59
2022-11-19T14:29:18.793Z,84.72
2022-11-19T14:32:29.923Z,84.51
2022-11-19T14:35:35.979Z,85.01
2022-11-19T14:38:46.954Z,84.84
2022-11-19T14:42:16.884Z,85.15
2022-11-19T14:45:20.270Z,84.41
2022-11-19T14:48:23.378Z,84.14
2022-11-19T14:51:31.413Z,83.73
2022-11-19T14:54:44.937Z,85.30
2022-11-19T14:58:02.199Z,84.12
2022-11-19T15:01:08.392Z,84.56
2022-11-19T15:04:13.347Z,84.39
2022-11-19T15:07:26.317Z,84.26
2022-11-19T15:10:31.701Z,84.48
2022-11-19T15:13:41.980Z,84.60
2022-11-19T15:16:47.383Z,84.77
2022-11-19T15:20:08.425Z,85.01
2022-11-19T15:23:23.399Z,85.51
2022-11-19T15:27:03.351Z,85.64
2022-11-19T15:30:21.650Z,86.73
2022-11-19T15:33:39.175Z,85.94
2022-11-19T15:36:46.111Z,86.26
2022-11-19T15:39:53.186Z,86.63
2022-11-19T15:43:09.432Z,87.28
2022-11-19T15:46:22.927Z,86.08
2022-11-19T15:49:30.428Z,86.34
2022-11-19T15:52:33.539Z,86.69
2022-11-19T15:55:37.496Z,87.06
2022-11-19T15:58:46.836Z,87.17
2022-11-19T16:02:01.750Z,86.97
2022-11-19T16:05:06.411Z,88.07
2022-11-19T16:08:13.520Z,87.92
2022-11-19T16:11:37.220Z,88.20
2022-11-19T16:14:58.385Z,88.44
2022-11-19T16:18:01.098Z,89.06
2022-11-19T16:21:04.699Z,89.83
2022-11-19T16:24:32.131Z,89.41
2022-11-19T16:27:41.264Z,89.75
2022-11-19T16:30:53.217Z,90.05
2022-11-19T16:33:56.066Z,90.13
2022-11-19T16:36:59.951Z,90.43
2022-11-19T16:40:03.571Z,90.76
2022-11-19T16:43:06.766Z,91.06
2022-11-19T16:46:14.991Z,90.68
2022-11-19T16:49:50.090Z,91.44
2022-11-19T16:52:53.661Z,90.76
2022-11-19T16:55:57.159Z,91.92
2022-11-19T16:59:03.407Z,91.13
2022-11-19T17:02:15.253Z,91.45
2022-11-19T17:05:21.792Z,91.30
2022-11-19T17:08:29.035Z,91.11
2022-11-19T17:11:58.146Z,92.03
2022-11-19T17:15:22.068Z,92.16
2022-11-19T17:18:34.522Z,91.47
2022-11-19T17:21:37.582Z,92.13
2022-11-19T17:24:46.037Z,92.26
2022-11-19T17:27:56.173Z,91.54
2022-11-19T17:30:59.983Z,92.48
2022-11-19T17:34:19.520Z,91.96
2022-11-19T17:37:22.899Z,92.69
2022-11-19T17:40:26.232Z,93.22
2022-11-19T17:43:54.873Z,93.19
2022-11-19T17:46:59.016Z,94.11
2022-11-19T17:50:01.810Z,93.65
2022-11-19T17:53:04.852Z,93.46
2022-11-19T17:56:27.124Z,93.81
2022-11-19T17:59:29.946Z,93.79
2022-11-19T18:02:32.854Z,93.80
2022-11-19T18:05:37.852Z,93.78
2022-11-19T18:08:42.337Z,93.85
2022-11-19T18:11:45.212Z,94.46
2022-11-19T18:14:48.271Z,94.18
2022-11-19T18:17:51.553Z,94.44
2022-11-19T18:21:00.576Z,94.68
2022-11-19T18:24:04.815Z,94.58
2022-11-19T18:27:07.683Z,94.08
2022-11-19T18:30:21.240Z,94.02
2022-11-19T18:33:25.369Z,94.91
2022-11-19T18:36:28.196Z,94.26
2022-11-19T18:39:31.247Z,94.87
2022-11-19T18:42:35.064Z,94.88
2022-11-19T18:45:37.998Z,94.36
2022-11-19T18:48:40.943Z,94.76
2022-11-19T18:51:44.572Z,94.12
2022-11-19T18:54:47.626Z,94.88
2022-11-19T18:57:50.654Z,95.04
2022-11-19T19:00:53.856Z,95.12
2022-11-19T19:03:57.246Z,94.55
2022-11-19T19:07:01.270Z,94.64
2022-11-19T19:10:04.842Z,94.51
2022-11-19T19:13:07.869Z,95.36
2022-11-19T19:16:11.770Z,94.72
2022-11-19T19:19:18.420Z,94.85
2022-11-19T19:22:22.694Z,95.51
2022-11-19T19:25:25.871Z,95.26
2022-11-19T19:28:29.012Z,95.48
2022-11-19T19:31:32.438Z,95.08
2022-11-19T19:34:36.438Z,95.88
2022-11-19T19:37:39.952Z,95.72
2022-11-19T19:40:42.940Z,96.18
2022-11-19T19:43:47.803Z,95.31
2022-11-19T19:46:50.863Z,95.40
2022-11-19T19:49:53.690Z,95.84
2022-11-19T19:52:59.518Z,96.49
2022-11-19T19:56:15.662Z,95.44
2022-11-19T19:59:19.166Z,95.71
2022-11-19T20:02:23.593Z,95.28
2022-11-19T20:05:26.655Z,95.62
2022-11-19T20:08:30.500Z,96.29
2022-11-19T20:11:34.245Z,96.04
2022-11-19T20:14:37.247Z,95.88
2022-11-19T20:17:40.550Z,95.27
2022-11-19T20:20:43.520Z,95.48
2022-11-19T20:23:46.982Z,95.15
2022-11-19T20:26:49.980Z,95.38
2022-11-19T20:29:53.019Z,95.83
2022-11-19T20:32:59.171Z,96.08
2022-11-19T20:36:02.371Z,95.57
2022-11-19T20:39:06.734Z,96.19
2022-11-19T20:42:28.344Z,95.49
2022-11-19T20:45:31.722Z,96.01
2022-11-19T20:48:34.768Z,95.41
2022-11-19T20:51:38.301Z,95.33
2022-11-19T20:54:42.045Z,95.62
2022-11-19T20:57:44.971Z,95.22
2022-11-19T21:00:48.022Z,94.76
2022-11-19T21:03:51.335Z,95.25
2022-11-19T21:06:54.399Z,94.90
2022-11-19T21:09:57.485Z,95.59
2022-11-19T21:13:03.341Z,95.48
2022-11-19T21:16:17.919Z,95.85
2022-11-19T21:19:21.901Z,95.88
2022-11-19T21:22:25.075Z,95.79
2022-11-19T21:25:28.136Z,95.20
2022-11-19T21:28:32.637Z,95.58
2022-11-19T21:31:40.699Z,95.69
2022-11-19T21:34:43.529Z,95.42
2022-11-19T21:37:46.350Z,95.76
2022-11-19T21:40:51.803Z,95.56
2022-11-19T21:43:54.593Z,95.24
2022-11-19T21:46:57.527Z,95.50
2022-11-19T21:50:00.948Z,95.43
2022-11-19T21:53:03.909Z,95.04
2022-11-19T21:56:07.085Z,95.56
2022-11-19T21:59:09.913Z,95.58
2022-11-19T22:02:13.159Z,95.65
2022-11-19T22:05:16.283Z,95.92
2022-11-19T22:08:19.314Z,95.52
2022-11-19T22:11:31.676Z,95.28
2022-11-19T22:14:35.091Z,94.84
2022-11-19T22:17:38.886Z,95.45
2022-11-19T22:20:42.814Z,95.42
2022-11-19T22:23:46.899Z,95.03
2022-11-19T22:26:49.881Z,94.77
2022-11-19T22:29:56.001Z,94.83
2022-11-19T22:32:59.500Z,93.78
2022-11-19T22:36:09.452Z,93.98
2022-11-19T22:39:13.674Z,93.94
2022-11-19T22:42:16.388Z,93.71
2022-11-19T22:45:19.250Z,94.36
2022-11-19T22:48:21.978Z,93.94
2022-11-19T22:51:26.241Z,93.68
2022-11-19T22:54:28.954Z,94.29
2022-11-19T22:57:31.757Z,94.45
2022-11-19T23:00:43.761Z,93.92
2022-11-19T23:03:47.040Z,94.77
2022-11-19T23:06:49.764Z,94.63
2022-11-19T23:09:52.584Z,94.38
2022-11-19T23:13:13.874Z,94.23
2022-11-19T23:16:20.748Z,94.45
2022-11-19T23:19:24.116Z,94.37
2022-11-19T23:22:26.998Z,94.59
2022-11-19T23:25:29.868Z,95.16
2022-11-19T23:28:34.928Z,94.85
2022-11-19T23:31:39.396Z,94.56
2022-11-19T23:34:42.148Z,94.59
2022-11-19T23:37:44.875Z,94.88
2022-11-19T23:40:47.873Z,94.31
2022-11-19T23:43:53.126Z,94.08
2022-11-19T23:46:55.828Z,94.10
2022-11-19T23:49:58.565Z,94.40
2022-11-19T23:53:01.471Z,94.15
2022-11-19T23:56:05.511Z,94.39
2022-11-19T23:59:08.320Z,94.35
